This is the latest recevied weather packets stored in our database for station/object IV3ONZ. If no packets are shown the sender has not sent any weather packets the latest 10 day(s).
| Time | Temp. | Humidity | Pressure | Rain* | Wind** | Luminosity | Snow |
|---|---|---|---|---|---|---|---|
| 1777974304 | 16.67° C | 85% | 1018.5 hPa | 0 mm | - | 229 W/m² | - |
| 1777971303 | 17.78° C | 74% | 1018.4 hPa | 0 mm | - | 98 W/m² | - |
| 1777970404 | 17.78° C | 72% | 1018.2 hPa | 0 mm | - | 171 W/m² | - |
| 1777970233 | 17.78° C | 71% | 1018.2 hPa | 0 mm | - | 153 W/m² | - |
| 1777965305 | 17.78° C | 62% | 1017.6 hPa | 0 mm | - | 254 W/m² | - |
| 1777964233 | 17.78° C | 64% | 1017.7 hPa | 0 mm | - | 225 W/m² | - |
| 1777959903 | 15.56° C | 68% | 1017.1 hPa | 0 mm | - | 67 W/m² | - |
| 1777959303 | 15° C | 69% | 1017.2 hPa | 0 mm | - | 50 W/m² | - |
| 1777958703 | 14.44° C | 69% | 1017.1 hPa | 0 mm | - | 41 W/m² | - |
| 1777958103 | 14.44° C | 68% | 1017.2 hPa | 0 mm | - | 28 W/m² | - |
| 1777956904 | 14.44° C | 68% | 1017 hPa | 0 mm | - | 9 W/m² | - |
| 1777956305 | 13.89° C | 70% | 1017.2 hPa | 0 mm | - | 9 W/m² | - |
| 1777954504 | 13.33° C | 70% | 1017.1 hPa | 0 mm | - | 17 W/m² | - |
| 1777953903 | 11.67° C | 78% | 1016.9 hPa | 0 mm | - | 9 W/m² | - |
| 1777951804 | 11.67° C | 77% | 1017.1 hPa | 0 mm | - | 0 W/m² | - |
| 1777947003 | 11.67° C | 82% | 1017.6 hPa | 0 mm | - | 0 W/m² | - |
| 1777944004 | 13.89° C | 75% | 1017.9 hPa | 0 mm | - | 0 W/m² | - |
| 1777941433 | 13.33° C | 77% | 1018.6 hPa | 0 mm | - | 0 W/m² | - |
| 1777939504 | 13.33° C | 83% | 1019 hPa | 0 mm | - | 0 W/m² | - |
| 1777936504 | 12.78° C | 83% | 1019.4 hPa | 0 mm | - | 0 W/m² | - |
| 1777935604 | 13.33° C | 83% | 1019.3 hPa | 0 mm | - | 0 W/m² | - |
| 1777932004 | 13.89° C | 79% | 1019.6 hPa | 0 mm | - | 0 W/m² | - |
| 1777929604 | 15° C | 74% | 1019.7 hPa | 0 mm | - | 0 W/m² | - |
| 1777929303 | 15° C | 74% | 1019.7 hPa | 0 mm | - | 0 W/m² | - |
| 1777927204 | 15.56° C | 69% | 1020 hPa | 0 mm | - | 0 W/m² | - |
* Rain latest hour (hover to see other rain measurements)
** Current wind speed in m/s (hover to see current wind gust speed)